Time;durP1;ratioP1;P1;durP2;ratioP2;P2;SDS_P1;SDS_P2;PMS_P1;PMS_P2;Temp;Humidity;BMP_temperature;BMP_pressure;BME280_temperature;BME280_humidity;BME280_pressure;Samples;Min_cycle;Max_cycle;Signal;HPM_P1;HPM_P2
2021/08/27 00:00:39;;;;;;;5.73;1.77;;;13.30;99.90;;;;;;5020415;28;20181;-74
2021/08/27 00:03:04;;;;;;;3.50;1.40;;;13.30;99.90;;;;;;5016553;28;20181;-73
2021/08/27 00:05:30;;;;;;;2.33;2.00;;;13.30;99.90;;;;;;5001905;28;20717;-73
2021/08/27 00:07:56;;;;;;;3.13;1.73;;;13.40;99.90;;;;;;4993571;28;20171;-73
2021/08/27 00:10:21;;;;;;;2.40;1.63;;;13.40;99.90;;;;;;4994012;28;20213;-73
2021/08/27 00:12:47;;;;;;;3.13;1.57;;;13.40;99.90;;;;;;4994563;28;20232;-73
2021/08/27 00:15:13;;;;;;;3.77;1.73;;;13.40;99.90;;;;;;4994264;28;20620;-73
2021/08/27 00:17:40;;;;;;;14.50;4.00;;;13.40;99.90;;;;;;5013049;28;20189;-73
2021/08/27 00:20:07;;;;;;;6.00;1.53;;;13.50;99.90;;;;;;5013993;28;20776;-73
2021/08/27 00:22:33;;;;;;;1.70;1.00;;;13.50;99.90;;;;;;5013428;28;20463;-73
2021/08/27 00:24:59;;;;;;;1.87;1.47;;;13.50;99.90;;;;;;5019642;28;20460;-73
2021/08/27 00:27:25;;;;;;;3.07;1.37;;;13.50;99.90;;;;;;5026593;28;20416;-73
2021/08/27 00:29:50;;;;;;;4.00;1.70;;;13.50;99.90;;;;;;5012773;28;20565;-73
2021/08/27 00:32:16;;;;;;;7.13;2.13;;;13.50;99.90;;;;;;5014093;28;20452;-73
2021/08/27 00:34:42;;;;;;;5.70;2.70;;;13.50;99.90;;;;;;5012701;28;20181;-73
2021/08/27 00:37:07;;;;;;;4.90;2.80;;;13.50;99.90;;;;;;5013647;28;20180;-73
2021/08/27 00:39:33;;;;;;;8.10;3.97;;;13.50;99.90;;;;;;5013380;28;20169;-73
2021/08/27 00:41:59;;;;;;;8.40;3.73;;;13.40;99.90;;;;;;5013182;28;20177;-73
2021/08/27 00:44:24;;;;;;;10.27;4.57;;;13.40;99.90;;;;;;5013066;28;20198;-73
2021/08/27 00:46:50;;;;;;;9.33;4.17;;;13.40;99.90;;;;;;5013568;28;20240;-73
2021/08/27 00:49:16;;;;;;;9.70;2.87;;;13.40;99.90;;;;;;5013826;28;20228;-73
2021/08/27 00:51:42;;;;;;;3.97;2.53;;;13.40;99.90;;;;;;5013089;28;20181;-73
2021/08/27 00:54:08;;;;;;;5.80;2.30;;;13.40;99.90;;;;;;5013263;28;20164;-73
2021/08/27 00:56:34;;;;;;;3.70;2.60;;;13.40;99.90;;;;;;5013386;28;20865;-73
2021/08/27 00:59:00;;;;;;;6.60;2.50;;;13.40;99.90;;;;;;5012753;28;20291;-73
2021/08/27 01:01:26;;;;;;;3.03;1.77;;;13.40;99.90;;;;;;5013269;28;20479;-73
2021/08/27 01:03:54;;;;;;;3.80;2.10;;;13.40;99.90;;;;;;5013068;28;20448;-73
2021/08/27 01:06:40;;;;;;;11.30;2.00;;;13.30;99.90;;;;;;4994902;28;20178;-73
2021/08/27 01:09:12;;;;;;;4.50;1.93;;;13.30;99.90;;;;;;5009790;28;20416;-73
2021/08/27 01:11:45;;;;;;;6.23;2.60;;;13.20;99.90;;;;;;5012917;28;20450;-73
2021/08/27 01:14:19;;;;;;;5.83;2.70;;;13.20;99.90;;;;;;5013103;28;20474;-73
2021/08/27 01:16:51;;;;;;;8.60;2.83;;;13.20;99.90;;;;;;5013354;28;20399;-73
2021/08/27 01:19:57;;;;;;;7.57;3.47;;;13.10;99.90;;;;;;5012761;28;20431;-73
2021/08/27 01:25:13;;;;;;;8.63;5.00;;;13.10;99.90;;;;;;5055433;28;20901;-74
2021/08/27 01:27:40;;;;;;;10.20;3.90;;;13.10;99.90;;;;;;5049091;28;20451;-74
2021/08/27 01:35:28;;;;;;;7.50;2.00;;;13.00;99.90;;;;;;5069781;28;21040;-73
2021/08/27 01:37:55;;;;;;;2.87;1.40;;;13.00;99.90;;;;;;5069973;28;20404;-73
2021/08/27 01:40:25;;;;;;;4.67;1.53;;;13.00;99.90;;;;;;5069263;28;20394;-73
2021/08/27 01:42:52;;;;;;;2.23;2.03;;;13.00;99.90;;;;;;5063364;28;20850;-73
2021/08/27 01:45:19;;;;;;;3.40;1.40;;;13.00;99.90;;;;;;5059495;28;20418;-73
2021/08/27 01:47:45;;;;;;;2.33;1.37;;;13.00;99.90;;;;;;5056675;28;20410;-73
2021/08/27 01:50:12;;;;;;;7.10;2.23;;;13.00;99.90;;;;;;5069525;28;20751;-73
2021/08/27 01:52:39;;;;;;;4.60;1.93;;;13.00;99.90;;;;;;5069620;28;20429;-73
2021/08/27 01:55:07;;;;;;;2.93;1.43;;;13.00;99.90;;;;;;5069499;28;20532;-73
2021/08/27 01:57:34;;;;;;;3.13;1.53;;;13.00;99.90;;;;;;5064942;28;20417;-73
2021/08/27 02:00:00;;;;;;;3.80;1.70;;;13.00;99.90;;;;;;5049566;28;20442;-73
2021/08/27 02:02:27;;;;;;;3.07;2.00;;;13.00;99.90;;;;;;5049366;28;20448;-73
2021/08/27 02:04:58;;;;;;;3.43;1.60;;;13.10;99.90;;;;;;5049529;28;20430;-73
2021/08/27 02:07:23;;;;;;;6.97;1.93;;;13.10;99.90;;;;;;5049362;28;20414;-73
2021/08/27 02:09:53;;;;;;;4.17;1.93;;;13.10;99.90;;;;;;5048863;28;20395;-73
2021/08/27 02:12:19;;;;;;;1.60;1.50;;;13.10;99.90;;;;;;5049177;28;20256;-73
2021/08/27 02:14:48;;;;;;;4.67;1.57;;;13.10;99.90;;;;;;5049617;28;20458;-73
2021/08/27 02:17:13;;;;;;;2.70;1.80;;;13.10;99.90;;;;;;5049765;28;20928;-73
2021/08/27 02:19:39;;;;;;;3.60;1.50;;;13.20;99.90;;;;;;5049129;28;20395;-73
2021/08/27 02:22:10;;;;;;;2.43;1.30;;;13.20;99.90;;;;;;5048814;28;20160;-73
2021/08/27 02:24:43;;;;;;;5.50;3.63;;;13.20;99.90;;;;;;5049255;28;20183;-73
2021/08/27 02:27:09;;;;;;;7.73;2.30;;;13.20;99.90;;;;;;5048725;28;20403;-73
2021/08/27 02:29:38;;;;;;;6.63;2.60;;;13.20;99.90;;;;;;5048816;28;20419;-73
2021/08/27 02:32:06;;;;;;;3.93;2.07;;;13.20;99.90;;;;;;5049021;28;20449;-73
2021/08/27 02:34:33;;;;;;;5.20;2.10;;;13.20;99.90;;;;;;5068226;28;20463;-73
2021/08/27 02:37:00;;;;;;;7.73;2.40;;;13.20;99.90;;;;;;5068667;28;20390;-73
2021/08/27 02:39:28;;;;;;;9.70;2.23;;;13.30;99.90;;;;;;5068377;28;20828;-73
2021/08/27 02:41:55;;;;;;;4.60;2.13;;;13.30;99.90;;;;;;5069181;28;20473;-72
2021/08/27 02:44:21;;;;;;;5.10;1.73;;;13.30;99.90;;;;;;5068354;28;20390;-72
2021/08/27 02:46:46;;;;;;;6.57;1.93;;;13.20;99.90;;;;;;5055509;28;20749;-72
2021/08/27 02:49:12;;;;;;;3.20;1.57;;;13.20;99.90;;;;;;5054135;28;20608;-70
2021/08/27 02:51:44;;;;;;;7.90;2.40;;;13.20;99.90;;;;;;5055051;28;20171;-71
2021/08/27 02:54:15;;;;;;;1.90;1.60;;;13.20;99.90;;;;;;5055017;28;20176;-71
2021/08/27 02:56:42;;;;;;;1.83;1.70;;;13.20;99.90;;;;;;5049439;28;20513;-71
2021/08/27 02:59:12;;;;;;;3.67;1.73;;;13.20;99.90;;;;;;5034370;28;20551;-70
2021/08/27 03:01:49;;;;;;;2.30;1.50;;;13.10;99.90;;;;;;5034759;28;20947;-71
2021/08/27 03:09:30;;;;;;;4.27;1.43;;;13.10;99.90;;;;;;5069752;28;20538;-71
2021/08/27 03:12:03;;;;;;;3.50;1.73;;;13.10;99.90;;;;;;5069711;28;20397;-71
2021/08/27 03:14:34;;;;;;;2.97;1.10;;;13.10;99.90;;;;;;5069790;28;20387;-70
2021/08/27 03:17:03;;;;;;;2.30;1.50;;;13.20;99.90;;;;;;5069777;28;20391;-71
2021/08/27 03:19:39;;;;;;;6.43;1.33;;;13.20;99.90;;;;;;5069618;28;20421;-71
2021/08/27 03:22:08;;;;;;;2.77;1.30;;;13.20;99.90;;;;;;5068720;28;20496;-71
2021/08/27 03:24:39;;;;;;;6.03;1.70;;;13.20;99.90;;;;;;5064716;28;20446;-71
2021/08/27 03:27:10;;;;;;;8.53;1.70;;;13.20;99.90;;;;;;5066013;28;20426;-70
2021/08/27 03:29:39;;;;;;;2.83;1.50;;;13.30;99.90;;;;;;5049551;28;20387;-71
2021/08/27 03:32:08;;;;;;;5.70;1.70;;;13.20;99.90;;;;;;5087797;28;20964;-71
2021/08/27 03:34:37;;;;;;;4.20;1.70;;;13.30;99.90;;;;;;5089609;28;20390;-71
2021/08/27 03:37:03;;;;;;;4.13;1.90;;;13.30;99.90;;;;;;5089566;28;20390;-71
2021/08/27 03:39:30;;;;;;;3.90;1.73;;;13.30;99.90;;;;;;5086207;28;20732;-71
2021/08/27 03:42:01;;;;;;;2.77;1.10;;;13.30;99.90;;;;;;5049735;28;20411;-70
2021/08/27 03:44:28;;;;;;;3.23;2.40;;;13.30;99.90;;;;;;5049267;28;20529;-70
2021/08/27 03:46:54;;;;;;;4.73;1.57;;;13.40;99.90;;;;;;5049296;28;20392;-71
2021/08/27 03:49:19;;;;;;;4.23;2.07;;;13.40;99.90;;;;;;5054549;28;20483;-71
2021/08/27 03:51:46;;;;;;;8.13;1.80;;;13.40;99.90;;;;;;5058732;28;20176;-71
2021/08/27 03:54:14;;;;;;;2.50;1.50;;;13.40;99.90;;;;;;5049046;28;20625;-71
2021/08/27 03:56:40;;;;;;;5.00;1.90;;;13.40;99.90;;;;;;5049416;28;20495;-70
2021/08/27 03:59:06;;;;;;;3.07;1.70;;;13.40;99.90;;;;;;5049768;28;20500;-71
2021/08/27 04:01:33;;;;;;;3.03;1.50;;;13.40;99.90;;;;;;5048897;28;20431;-70
2021/08/27 04:03:59;;;;;;;3.13;1.73;;;13.40;99.90;;;;;;5049123;28;20687;-71
2021/08/27 04:06:24;;;;;;;3.37;1.40;;;13.40;99.90;;;;;;5068028;28;20418;-71
2021/08/27 04:08:50;;;;;;;2.07;1.40;;;13.40;99.90;;;;;;5068569;28;20253;-70
2021/08/27 04:11:17;;;;;;;4.10;2.10;;;13.40;99.90;;;;;;5068520;28;20224;-70
2021/08/27 04:13:44;;;;;;;4.10;1.70;;;13.30;99.90;;;;;;5068076;28;20241;-71
2021/08/27 04:16:10;;;;;;;2.60;1.13;;;13.30;99.90;;;;;;5067564;28;20452;-71
2021/08/27 04:18:36;;;;;;;10.70;1.77;;;13.30;99.90;;;;;;5051806;28;20434;-70
2021/08/27 04:21:01;;;;;;;2.33;1.90;;;13.30;99.90;;;;;;5034595;28;20201;-71
2021/08/27 04:23:27;;;;;;;3.27;2.13;;;13.30;99.90;;;;;;5035193;28;20162;-70
2021/08/27 04:25:53;;;;;;;4.20;1.70;;;13.40;99.90;;;;;;5035260;28;20180;-70
2021/08/27 04:28:18;;;;;;;2.27;1.53;;;13.30;99.90;;;;;;5035201;28;20443;-71
2021/08/27 04:30:44;;;;;;;1.83;1.20;;;13.40;99.90;;;;;;5037359;28;20572;-71
2021/08/27 04:33:10;;;;;;;4.37;2.10;;;13.30;99.90;;;;;;5044624;28;20179;-71
2021/08/27 04:35:36;;;;;;;2.80;1.60;;;13.40;99.90;;;;;;5044839;28;20935;-71
2021/08/27 04:38:01;;;;;;;2.20;1.60;;;13.40;99.90;;;;;;5051880;28;20168;-70
2021/08/27 04:40:27;;;;;;;2.07;1.50;;;13.40;99.90;;;;;;5055024;28;20470;-71
2021/08/27 04:42:53;;;;;;;3.93;2.00;;;13.40;99.90;;;;;;5054750;28;20185;-71
2021/08/27 04:45:19;;;;;;;2.20;1.40;;;13.40;99.90;;;;;;5052808;28;20161;-71
2021/08/27 04:47:45;;;;;;;3.83;2.30;;;13.40;99.90;;;;;;5049118;28;20200;-71
2021/08/27 04:50:11;;;;;;;1.57;1.17;;;13.50;99.90;;;;;;5034847;28;20422;-71
2021/08/27 04:52:37;;;;;;;4.87;1.83;;;13.50;99.90;;;;;;5034706;28;20166;-71
2021/08/27 04:55:04;;;;;;;3.13;1.67;;;13.50;99.90;;;;;;5034461;28;20458;-70
2021/08/27 04:57:30;;;;;;;1.80;1.40;;;13.60;99.90;;;;;;5035203;28;20423;-71
2021/08/27 04:59:56;;;;;;;3.67;1.70;;;13.60;99.90;;;;;;5034326;28;20951;-71
2021/08/27 05:02:22;;;;;;;4.43;2.23;;;13.50;99.90;;;;;;5034410;28;20526;-71
2021/08/27 05:04:47;;;;;;;3.17;1.80;;;13.60;99.90;;;;;;5034942;28;20426;-71
2021/08/27 05:07:13;;;;;;;2.73;1.70;;;13.60;99.90;;;;;;5034733;28;20176;-71
2021/08/27 05:09:38;;;;;;;2.10;1.40;;;13.60;99.90;;;;;;5034480;28;20267;-70
2021/08/27 05:12:05;;;;;;;6.20;1.80;;;13.60;99.90;;;;;;5034912;28;20157;-71
2021/08/27 05:14:30;;;;;;;1.93;1.30;;;13.60;99.90;;;;;;5034610;28;20161;-71
2021/08/27 05:16:56;;;;;;;3.73;3.10;;;13.60;99.90;;;;;;5034257;28;20411;-71
2021/08/27 05:19:21;;;;;;;5.33;2.30;;;13.60;99.90;;;;;;5034213;28;20182;-71
2021/08/27 05:21:47;;;;;;;6.17;2.80;;;13.60;99.90;;;;;;5040215;28;20192;-71
2021/08/27 05:24:12;;;;;;;3.67;2.10;;;13.60;99.90;;;;;;5053440;28;20181;-71
2021/08/27 05:26:38;;;;;;;3.70;2.57;;;13.60;99.90;;;;;;5054123;28;20173;-71
2021/08/27 05:29:05;;;;;;;3.80;2.60;;;13.60;99.90;;;;;;5053624;28;20250;-71
2021/08/27 05:31:31;;;;;;;6.90;3.33;;;13.70;99.90;;;;;;5044893;28;20245;-71
2021/08/27 05:33:59;;;;;;;10.47;4.50;;;13.70;99.90;;;;;;5053934;28;20991;-71
2021/08/27 05:36:25;;;;;;;6.97;3.97;;;13.70;99.90;;;;;;5041841;28;20786;-71
2021/08/27 05:38:51;;;;;;;7.20;4.30;;;13.80;99.90;;;;;;5035997;28;20429;-71
2021/08/27 05:41:16;;;;;;;6.93;4.93;;;13.80;99.90;;;;;;5040758;28;20476;-71
2021/08/27 05:43:42;;;;;;;7.00;4.90;;;13.90;99.90;;;;;;5043585;28;20255;-71
2021/08/27 05:46:08;;;;;;;10.30;7.13;;;13.90;99.90;;;;;;5053195;28;20161;-71
2021/08/27 05:48:33;;;;;;;10.20;8.43;;;14.00;99.90;;;;;;5051726;28;20185;-71
2021/08/27 05:50:59;;;;;;;8.63;7.70;;;14.00;99.90;;;;;;5050785;28;20188;-71
2021/08/27 05:53:24;;;;;;;18.33;9.70;;;14.10;99.90;;;;;;5052199;28;20222;-71
2021/08/27 05:55:50;;;;;;;14.63;9.40;;;14.10;99.90;;;;;;5052869;28;20204;-71
2021/08/27 05:58:16;;;;;;;14.10;9.10;;;14.10;99.90;;;;;;5038679;28;20640;-71
2021/08/27 06:00:42;;;;;;;13.17;9.00;;;14.20;99.90;;;;;;5037280;28;20197;-71
2021/08/27 06:03:07;;;;;;;13.97;8.60;;;14.20;99.90;;;;;;5032773;28;20186;-71
2021/08/27 06:05:33;;;;;;;12.73;7.43;;;14.20;99.90;;;;;;5033217;28;20417;-71
2021/08/27 06:07:58;;;;;;;8.83;7.07;;;14.20;99.90;;;;;;5032727;28;20206;-71
2021/08/27 06:10:24;;;;;;;14.40;5.80;;;14.30;99.90;;;;;;5035375;28;20265;-71
2021/08/27 06:12:49;;;;;;;6.00;4.40;;;14.30;99.90;;;;;;5033182;28;20198;-71
2021/08/27 06:15:16;;;;;;;6.20;4.27;;;14.40;99.90;;;;;;5033457;28;20184;-71
2021/08/27 06:17:41;;;;;;;6.37;4.60;;;14.40;99.90;;;;;;5032684;28;20739;-71
2021/08/27 06:20:09;;;;;;;5.97;4.70;;;14.50;99.90;;;;;;5032304;28;20488;-71
2021/08/27 06:22:35;;;;;;;5.53;4.80;;;14.50;99.90;;;;;;5032743;28;20306;-71
2021/08/27 06:25:01;;;;;;;9.93;5.10;;;14.60;99.90;;;;;;5032947;28;20650;-71
2021/08/27 06:27:26;;;;;;;8.73;4.70;;;14.60;99.90;;;;;;5032355;28;20171;-71
2021/08/27 06:29:52;;;;;;;9.90;6.57;;;14.70;99.90;;;;;;5035996;28;20432;-71
2021/08/27 06:32:18;;;;;;;7.20;5.50;;;14.70;99.90;;;;;;5032461;28;20190;-71
2021/08/27 06:34:44;;;;;;;8.70;6.13;;;14.80;99.90;;;;;;5037206;28;20600;-71
2021/08/27 06:37:10;;;;;;;10.13;6.93;;;14.90;99.90;;;;;;5040438;28;20461;-71
2021/08/27 06:39:36;;;;;;;12.43;7.60;;;14.90;99.90;;;;;;5039616;28;20187;-71
2021/08/27 06:42:02;;;;;;;9.63;5.47;;;14.90;99.90;;;;;;5043075;28;20630;-71
2021/08/27 06:44:29;;;;;;;9.70;5.73;;;15.00;99.90;;;;;;5042373;28;20180;-70
2021/08/27 06:46:54;;;;;;;7.80;6.00;;;15.00;99.90;;;;;;5035270;28;20696;-71
2021/08/27 06:49:20;;;;;;;8.83;5.63;;;15.00;99.90;;;;;;5045699;28;20481;-71
2021/08/27 06:51:45;;;;;;;7.87;6.10;;;15.10;99.90;;;;;;5046250;28;20208;-71
2021/08/27 06:54:11;;;;;;;9.27;5.63;;;15.20;99.90;;;;;;5033065;28;20160;-71
2021/08/27 06:56:37;;;;;;;6.53;5.37;;;15.20;99.90;;;;;;5038062;28;20216;-71
2021/08/27 06:59:02;;;;;;;8.80;6.20;;;15.20;99.90;;;;;;5034932;28;20311;-71
2021/08/27 07:01:28;;;;;;;8.40;6.80;;;15.20;99.90;;;;;;5035462;28;20187;-71
2021/08/27 07:03:57;;;;;;;6.50;5.83;;;15.30;99.90;;;;;;5040344;28;20191;-71
2021/08/27 07:06:23;;;;;;;10.63;7.23;;;15.30;99.90;;;;;;5042198;28;20534;-71
2021/08/27 07:08:49;;;;;;;9.40;7.63;;;15.50;99.90;;;;;;5042937;28;20557;-71
2021/08/27 07:11:16;;;;;;;8.70;6.50;;;15.60;99.90;;;;;;5041198;28;20431;-71
2021/08/27 07:13:42;;;;;;;9.90;7.93;;;15.70;99.90;;;;;;5045187;28;20422;-71
2021/08/27 07:16:08;;;;;;;13.70;7.20;;;15.70;99.90;;;;;;5032390;28;20434;-71
2021/08/27 07:18:39;;;;;;;8.87;6.97;;;15.80;99.90;;;;;;5046603;28;20992;-71
2021/08/27 07:21:05;;;;;;;11.50;6.27;;;15.80;99.90;;;;;;5050813;28;20183;-71
2021/08/27 07:23:31;;;;;;;7.23;5.87;;;15.80;99.90;;;;;;5050342;28;20880;-71
2021/08/27 07:25:56;;;;;;;8.03;4.90;;;15.80;99.90;;;;;;5035360;28;20172;-71
2021/08/27 07:28:22;;;;;;;6.20;5.60;;;15.90;99.90;;;;;;5032804;28;20705;-71
2021/08/27 07:30:47;;;;;;;8.30;5.90;;;16.00;99.90;;;;;;5051443;28;20207;-71
2021/08/27 07:33:13;;;;;;;8.13;5.00;;;16.00;99.90;;;;;;5051010;28;20526;-71
2021/08/27 07:35:39;;;;;;;5.67;5.00;;;16.10;99.90;;;;;;5051830;28;20156;-71
2021/08/27 07:38:04;;;;;;;6.27;4.87;;;16.20;99.90;;;;;;5051555;28;20192;-71
2021/08/27 07:40:30;;;;;;;5.73;5.10;;;16.30;99.90;;;;;;5051112;28;20238;-71
2021/08/27 07:42:55;;;;;;;5.53;4.60;;;16.30;99.90;;;;;;5051918;28;20188;-71
2021/08/27 07:45:21;;;;;;;5.10;3.53;;;16.30;99.90;;;;;;5033308;28;20258;-71
2021/08/27 07:47:47;;;;;;;3.60;3.30;;;16.30;99.90;;;;;;5035716;28;20203;-71
2021/08/27 07:50:14;;;;;;;4.17;2.80;;;16.20;99.90;;;;;;5049433;28;20156;-71
2021/08/27 07:52:40;;;;;;;3.73;3.30;;;16.20;99.90;;;;;;5048937;28;20184;-71
2021/08/27 07:55:07;;;;;;;5.30;4.53;;;16.20;99.90;;;;;;5035221;28;20427;-71
2021/08/27 07:57:33;;;;;;;5.53;4.10;;;16.20;99.90;;;;;;5045354;28;20437;-71
2021/08/27 07:59:58;;;;;;;7.33;5.83;;;16.20;99.90;;;;;;5044427;28;20442;-72
2021/08/27 08:02:24;;;;;;;7.80;6.00;;;16.20;99.90;;;;;;5038607;28;20533;-71
2021/08/27 08:04:50;;;;;;;7.30;6.00;;;16.20;99.90;;;;;;5043970;28;20172;-72
2021/08/27 08:07:16;;;;;;;9.10;8.20;;;16.40;99.90;;;;;;5039171;28;20185;-71
2021/08/27 08:09:42;;;;;;;7.50;6.60;;;16.60;99.90;;;;;;5038475;28;20542;-71
2021/08/27 08:12:07;;;;;;;8.33;7.40;;;16.70;99.90;;;;;;5048799;28;20407;-71
2021/08/27 08:14:33;;;;;;;8.83;7.20;;;16.80;99.90;;;;;;5051429;28;20427;-71
2021/08/27 08:16:58;;;;;;;8.83;7.53;;;16.80;99.90;;;;;;5044820;28;20270;-71
2021/08/27 08:19:24;;;;;;;8.27;6.50;;;16.80;99.90;;;;;;5049043;28;20232;-71
2021/08/27 08:21:49;;;;;;;8.93;7.40;;;16.80;99.90;;;;;;5035507;28;20173;-71
2021/08/27 08:24:15;;;;;;;8.40;6.60;;;16.80;99.90;;;;;;5039416;28;20201;-71
2021/08/27 08:26:40;;;;;;;8.83;6.23;;;16.80;99.90;;;;;;5034944;28;20192;-71
2021/08/27 08:29:06;;;;;;;6.30;5.10;;;16.90;99.90;;;;;;5035044;28;20200;-71
2021/08/27 08:31:33;;;;;;;5.60;4.97;;;16.90;99.90;;;;;;5040367;28;20501;-71
2021/08/27 08:33:59;;;;;;;5.87;4.20;;;16.90;99.90;;;;;;5034893;28;20169;-71
2021/08/27 08:36:25;;;;;;;5.03;2.53;;;16.90;99.90;;;;;;5043859;28;20822;-71
2021/08/27 08:38:51;;;;;;;4.10;3.13;;;16.90;99.90;;;;;;5054992;28;20800;-71
2021/08/27 08:41:19;;;;;;;3.40;2.10;;;16.90;99.90;;;;;;5053647;28;20588;-71
2021/08/27 08:43:46;;;;;;;3.70;2.33;;;16.90;99.90;;;;;;5050647;28;20840;-71
2021/08/27 08:46:12;;;;;;;2.77;2.30;;;16.80;99.90;;;;;;5037643;28;20454;-71
2021/08/27 08:48:40;;;;;;;3.13;2.10;;;16.80;99.90;;;;;;5054415;28;20450;-71
2021/08/27 08:51:06;;;;;;;2.93;2.10;;;16.70;99.90;;;;;;5046154;28;20785;-71
2021/08/27 08:53:35;;;;;;;3.87;2.40;;;16.80;99.90;;;;;;5034427;28;20439;-71
2021/08/27 08:56:02;;;;;;;4.70;1.60;;;16.80;99.90;;;;;;5034660;28;20392;-71
2021/08/27 08:58:29;;;;;;;3.03;2.20;;;16.80;99.90;;;;;;5034533;28;20392;-71
2021/08/27 09:00:55;;;;;;;5.27;1.80;;;16.80;99.90;;;;;;5032906;28;20439;-71
2021/08/27 09:03:20;;;;;;;3.50;2.20;;;16.80;99.90;;;;;;5041323;28;20781;-71
2021/08/27 09:05:48;;;;;;;4.70;2.00;;;16.80;99.90;;;;;;5046357;28;20189;-72
2021/08/27 09:08:16;;;;;;;7.00;2.10;;;16.70;99.90;;;;;;5054169;28;20623;-71
2021/08/27 09:10:43;;;;;;;6.80;1.80;;;16.70;99.90;;;;;;5037311;28;20845;-71
2021/08/27 09:13:09;;;;;;;8.43;2.20;;;16.60;99.90;;;;;;5034153;28;20846;-71
2021/08/27 09:15:35;;;;;;;4.40;2.60;;;16.60;99.90;;;;;;5034038;28;20439;-71
2021/08/27 09:18:08;;;;;;;3.60;1.87;;;16.70;99.90;;;;;;5042817;28;20505;-72
2021/08/27 09:20:34;;;;;;;4.67;2.10;;;16.80;99.90;;;;;;5043052;28;20441;-71
2021/08/27 09:23:04;;;;;;;5.13;2.27;;;16.90;99.90;;;;;;5033658;28;20507;-71
2021/08/27 09:25:32;;;;;;;3.10;1.57;;;17.00;99.90;;;;;;5044453;28;20672;-71
2021/08/27 09:28:16;;;;;;;2.57;1.63;;;17.10;99.90;;;;;;5053306;28;20460;-71
2021/08/27 09:30:57;;;;;;;5.27;2.17;;;17.10;99.90;;;;;;5045952;28;20466;-71
2021/08/27 09:33:27;;;;;;;2.60;1.60;;;17.10;99.90;;;;;;5046943;28;20450;-71
2021/08/27 09:35:55;;;;;;;3.00;2.13;;;17.10;99.90;;;;;;5034061;28;20462;-71
2021/08/27 09:38:24;;;;;;;6.03;1.93;;;17.10;99.90;;;;;;5044114;28;20431;-71
2021/08/27 09:41:00;;;;;;;4.30;1.73;;;17.30;99.90;;;;;;5051474;28;20724;-71
2021/08/27 09:43:26;;;;;;;3.27;1.93;;;17.60;99.90;;;;;;5040464;28;20800;-71
2021/08/27 09:45:52;;;;;;;3.93;2.13;;;17.80;99.90;;;;;;5043549;28;20429;-71
2021/08/27 09:48:18;;;;;;;4.80;1.60;;;18.00;99.90;;;;;;5034407;28;20215;-71
2021/08/27 09:50:48;;;;;;;5.87;2.10;;;18.10;99.90;;;;;;5033525;28;20188;-71
2021/08/27 09:53:16;;;;;;;3.20;2.00;;;18.10;99.90;;;;;;5033532;28;20396;-71
2021/08/27 09:55:58;;;;;;;3.77;2.03;;;18.20;99.90;;;;;;5042829;28;20545;-71
2021/08/27 09:58:25;;;;;;;3.43;1.90;;;18.20;99.90;;;;;;5041671;28;20411;-71
2021/08/27 10:01:07;;;;;;;1.90;1.63;;;18.10;99.90;;;;;;5046092;28;20430;-71
2021/08/27 10:03:34;;;;;;;4.63;2.90;;;18.00;99.90;;;;;;5045028;28;20473;-72
2021/08/27 10:06:03;;;;;;;2.50;1.50;;;17.90;99.90;;;;;;5045508;28;20450;-71
2021/08/27 10:08:32;;;;;;;3.20;1.20;;;17.90;99.90;;;;;;5041989;28;20466;-71
2021/08/27 10:11:18;;;;;;;2.00;1.13;;;17.90;99.90;;;;;;5047727;28;20931;-71
2021/08/27 10:13:44;;;;;;;1.70;1.20;;;18.10;99.90;;;;;;5052629;28;20433;-69
2021/08/27 10:16:10;;;;;;;3.23;1.50;;;18.20;99.90;;;;;;5052723;28;20390;-70
2021/08/27 10:18:36;;;;;;;3.90;1.37;;;18.30;99.90;;;;;;5045561;28;20427;-70
2021/08/27 10:21:04;;;;;;;2.10;1.40;;;18.40;99.90;;;;;;5037059;28;20421;-70
2021/08/27 10:23:30;;;;;;;1.80;1.00;;;18.50;99.90;;;;;;5032523;28;20942;-71
2021/08/27 10:25:56;;;;;;;4.90;1.43;;;18.40;99.90;;;;;;5048527;28;20513;-70
2021/08/27 10:28:28;;;;;;;3.03;1.50;;;18.40;99.90;;;;;;5044741;28;20239;-70
2021/08/27 10:39:00;;;;;;;1.90;1.20;;;18.20;99.90;;;;;;5068250;28;20536;-71
2021/08/27 10:44:11;;;;;;;1.33;1.03;;;17.70;99.90;;;;;;5087486;27;20519;-71
2021/08/27 10:55:09;;;;;;;2.13;1.30;;;17.20;99.90;;;;;;5070091;28;20508;-71
2021/08/27 10:57:45;;;;;;;2.73;1.80;;;17.30;99.90;;;;;;5069797;28;20378;-71
2021/08/27 11:00:11;;;;;;;3.67;1.87;;;17.40;99.90;;;;;;5063541;28;20525;-71
2021/08/27 11:02:51;;;;;;;2.80;1.60;;;17.40;99.90;;;;;;5055926;28;20422;-71
2021/08/27 11:05:46;;;;;;;3.83;1.70;;;17.60;99.90;;;;;;5049660;28;20394;-71
2021/08/27 11:13:47;;;;;;;3.10;1.63;;;17.60;99.90;;;;;;5088549;28;20532;-69
2021/08/27 11:18:56;;;;;;;2.47;1.87;;;17.40;99.90;;;;;;5063952;28;20521;-71
2021/08/27 11:21:39;;;;;;;3.10;1.60;;;17.30;99.90;;;;;;5049791;28;20561;-71
2021/08/27 11:24:22;;;;;;;4.60;2.47;;;17.20;99.90;;;;;;5069290;28;20163;-71
2021/08/27 11:27:01;;;;;;;1.80;1.40;;;17.20;99.90;;;;;;5029871;28;20904;-71
2021/08/27 11:29:30;;;;;;;5.90;1.97;;;17.10;99.90;;;;;;5032765;28;20722;-71
2021/08/27 11:31:57;;;;;;;4.10;1.30;;;17.10;99.90;;;;;;5048992;28;20465;-71
2021/08/27 11:34:46;;;;;;;2.03;1.30;;;17.20;99.90;;;;;;5049858;28;20391;-71
2021/08/27 11:37:11;;;;;;;3.63;0.97;;;17.20;99.90;;;;;;5048106;28;20490;-71
2021/08/27 11:39:37;;;;;;;3.40;1.17;;;17.20;99.90;;;;;;5049458;28;20865;-71
2021/08/27 11:42:04;;;;;;;2.77;1.20;;;17.20;99.90;;;;;;5049017;28;20169;-71
2021/08/27 11:44:30;;;;;;;1.97;1.30;;;17.20;99.90;;;;;;5049666;28;20456;-71
2021/08/27 11:47:02;;;;;;;2.50;1.20;;;17.20;99.90;;;;;;5049355;28;20407;-71
2021/08/27 11:49:34;;;;;;;3.50;1.10;;;17.40;99.90;;;;;;5049061;28;20178;-72
2021/08/27 11:52:26;;;;;;;3.00;1.40;;;17.50;99.90;;;;;;5055151;28;20915;-71
2021/08/27 11:54:59;;;;;;;2.57;1.50;;;17.60;99.90;;;;;;5043145;28;20410;-71
2021/08/27 11:57:25;;;;;;;2.30;1.43;;;17.80;99.90;;;;;;5049269;28;20446;-71
2021/08/27 11:59:50;;;;;;;3.80;1.70;;;18.00;99.90;;;;;;5047911;28;20447;-71
2021/08/27 12:02:19;;;;;;;1.33;1.10;;;18.20;99.90;;;;;;5049171;28;20216;-72
2021/08/27 12:04:54;;;;;;;1.90;1.23;;;18.40;99.90;;;;;;5048947;28;20179;-71
2021/08/27 12:07:20;;;;;;;2.50;1.20;;;18.50;99.90;;;;;;5048960;28;20401;-71
2021/08/27 12:09:45;;;;;;;2.47;1.47;;;18.60;99.90;;;;;;5047745;28;20506;-71
2021/08/27 12:12:32;;;;;;;2.47;1.27;;;18.60;99.90;;;;;;5048910;28;20190;-71
2021/08/27 12:14:58;;;;;;;6.90;1.90;;;18.80;99.90;;;;;;5048168;28;20160;-71
2021/08/27 12:17:27;;;;;;;5.50;2.03;;;18.90;99.90;;;;;;5048718;28;20465;-71
2021/08/27 12:19:55;;;;;;;0.93;0.90;;;18.90;99.90;;;;;;5048298;28;20183;-72
2021/08/27 12:22:24;;;;;;;3.50;1.30;;;19.00;99.90;;;;;;5037297;28;20411;-71
2021/08/27 12:24:52;;;;;;;2.50;1.10;;;19.00;99.90;;;;;;5035845;28;20514;-71
2021/08/27 12:27:18;;;;;;;6.17;1.43;;;19.10;99.90;;;;;;5048390;28;20450;-71
2021/08/27 12:29:43;;;;;;;4.03;1.70;;;19.20;99.90;;;;;;5037590;28;20461;-72
2021/08/27 12:32:18;;;;;;;8.90;7.03;;;19.20;99.90;;;;;;5033901;28;20547;-71
2021/08/27 12:34:46;;;;;;;5.03;3.30;;;19.30;99.90;;;;;;5035255;28;20241;-71
2021/08/27 12:37:12;;;;;;;2.40;1.87;;;19.30;99.90;;;;;;5035245;28;20887;-71
2021/08/27 12:39:38;;;;;;;2.23;2.00;;;19.30;99.90;;;;;;5035362;28;20420;-71
2021/08/27 12:42:20;;;;;;;3.80;2.03;;;19.20;99.90;;;;;;5034988;28;20435;-71
2021/08/27 12:45:05;;;;;;;3.40;1.80;;;19.30;99.90;;;;;;5034897;28;20187;-71
2021/08/27 12:47:35;;;;;;;3.37;2.70;;;19.20;99.90;;;;;;5035352;28;20491;-72
2021/08/27 12:50:06;;;;;;;4.40;2.73;;;19.20;99.90;;;;;;5035137;28;20415;-71
2021/08/27 12:52:31;;;;;;;3.60;2.10;;;19.20;99.90;;;;;;5034411;28;20865;-71
2021/08/27 12:54:57;;;;;;;4.43;2.50;;;19.10;99.90;;;;;;5034781;28;20455;-71
2021/08/27 12:57:23;;;;;;;2.13;1.80;;;19.00;99.90;;;;;;5035038;28;20209;-71
2021/08/27 13:02:37;;;;;;;3.80;2.47;;;18.90;99.90;;;;;;5059167;27;20544;-71
2021/08/27 13:05:03;;;;;;;3.17;1.90;;;18.80;99.90;;;;;;5049883;28;20746;-72
2021/08/27 13:07:32;;;;;;;2.20;1.60;;;18.80;99.90;;;;;;5050021;28;20743;-71
2021/08/27 13:13:01;;;;;;;7.50;2.00;;;18.80;99.90;;;;;;5070139;28;20591;-71
2021/08/27 13:15:27;;;;;;;1.87;1.23;;;18.80;99.90;;;;;;5069932;28;20725;-71
2021/08/27 13:18:11;;;;;;;6.53;1.77;;;18.80;99.90;;;;;;5065050;28;20534;-71
2021/08/27 13:20:37;;;;;;;2.03;1.10;;;18.70;99.90;;;;;;5051217;28;20225;-71
2021/08/27 13:23:23;;;;;;;1.50;1.33;;;18.80;99.90;;;;;;5069675;28;20382;-70
2021/08/27 13:25:52;;;;;;;1.97;1.30;;;18.80;99.90;;;;;;5050562;28;20493;-71
2021/08/27 13:28:18;;;;;;;1.97;1.00;;;18.90;99.90;;;;;;5049674;28;20403;-71
2021/08/27 13:30:43;;;;;;;2.93;2.13;;;19.00;99.90;;;;;;5053546;28;20418;-71
2021/08/27 13:33:09;;;;;;;3.90;2.20;;;19.00;99.90;;;;;;5069651;28;20390;-71
2021/08/27 13:35:35;;;;;;;9.00;3.40;;;19.10;99.90;;;;;;5059309;28;20645;-71